Time;durP1;ratioP1;P1;durP2;ratioP2;P2;SDS_P1;SDS_P2;PMS_P1;PMS_P2;Temp;Humidity;BMP_temperature;BMP_pressure;BME280_temperature;BME280_humidity;BME280_pressure;Samples;Min_cycle;Max_cycle;Signal;HPM_P1;HPM_P2
2022/08/18 00:01:47;;;;;;;61.67;43.38;;;;;;;;;;5026997;28;20589;-65
2022/08/18 00:04:13;;;;;;;62.80;42.22;;;;;;;;;;5028145;28;20657;-66
2022/08/18 00:06:39;;;;;;;61.45;43.15;;;;;;;;;;5027461;28;20208;-66
2022/08/18 00:09:07;;;;;;;61.47;42.00;;;;;;;;;;5040154;28;20590;-66
2022/08/18 00:11:36;;;;;;;59.50;41.58;;;;;;;;;;5028702;28;20255;-66
2022/08/18 00:14:02;;;;;;;59.95;43.22;;;;;;;;;;5027201;28;20201;-66
2022/08/18 00:16:27;;;;;;;61.83;42.65;;;;;;;;;;5027695;28;20186;-66
2022/08/18 00:18:52;;;;;;;58.67;42.83;;;;;;;;;;5027919;28;20849;-66
2022/08/18 00:21:19;;;;;;;61.10;42.63;;;;;;;;;;5015332;28;20552;-65
2022/08/18 00:23:44;;;;;;;67.18;44.42;;;;;;;;;;5025754;28;20233;-65
2022/08/18 00:26:09;;;;;;;62.83;43.67;;;;;;;;;;5027394;28;20182;-66
2022/08/18 00:28:36;;;;;;;65.43;43.50;;;;;;;;;;5028979;28;20248;-66
2022/08/18 00:31:03;;;;;;;59.40;41.60;;;;;;;;;;5024436;28;20268;-66
2022/08/18 00:33:28;;;;;;;66.22;42.35;;;;;;;;;;5032284;28;20178;-66
2022/08/18 00:35:53;;;;;;;59.22;41.20;;;;;;;;;;5028190;28;20277;-66
2022/08/18 00:38:19;;;;;;;57.78;40.80;;;;;;;;;;5022891;28;20194;-65
2022/08/18 00:40:48;;;;;;;57.30;40.53;;;;;;;;;;5025824;28;20650;-65
2022/08/18 00:43:33;;;;;;;59.92;40.63;;;;;;;;;;5023530;28;20206;-66
2022/08/18 00:45:59;;;;;;;61.03;41.00;;;;;;;;;;5015323;28;20256;-65
2022/08/18 00:48:25;;;;;;;62.63;42.58;;;;;;;;;;5031581;28;20290;-65
2022/08/18 00:50:55;;;;;;;60.45;42.05;;;;;;;;;;5030146;28;20264;-66
2022/08/18 00:53:35;;;;;;;62.63;41.92;;;;;;;;;;5028436;28;20229;-66
2022/08/18 00:56:13;;;;;;;60.17;40.45;;;;;;;;;;5027274;28;20190;-66
2022/08/18 00:58:54;;;;;;;55.83;40.90;;;;;;;;;;5024355;28;20536;-66
2022/08/18 01:01:22;;;;;;;54.40;40.85;;;;;;;;;;5032517;28;20316;-66
2022/08/18 01:03:52;;;;;;;55.70;39.83;;;;;;;;;;5030460;28;20516;-65
2022/08/18 01:06:31;;;;;;;54.55;39.45;;;;;;;;;;5031153;28;20277;-65
2022/08/18 01:08:57;;;;;;;57.45;39.40;;;;;;;;;;5034376;28;20189;-65
2022/08/18 01:11:23;;;;;;;57.80;40.60;;;;;;;;;;5024429;28;20511;-66
2022/08/18 01:13:49;;;;;;;62.03;42.25;;;;;;;;;;5032105;28;20621;-66
2022/08/18 01:21:50;;;;;;;54.67;39.78;;;;;;;;;;5017582;28;20189;-66
2022/08/18 01:24:19;;;;;;;54.25;40.33;;;;;;;;;;5030677;28;20320;-66
2022/08/18 01:26:48;;;;;;;54.92;39.50;;;;;;;;;;5029938;28;20660;-66
2022/08/18 01:29:15;;;;;;;60.58;41.80;;;;;;;;;;5032920;28;20803;-66
2022/08/18 01:31:48;;;;;;;56.08;39.88;;;;;;;;;;5028681;28;20209;-66
2022/08/18 01:34:14;;;;;;;59.40;40.75;;;;;;;;;;5028102;28;20197;-66
2022/08/18 01:36:41;;;;;;;53.80;38.95;;;;;;;;;;5026486;28;20602;-66
2022/08/18 01:39:10;;;;;;;54.40;40.78;;;;;;;;;;5023650;28;20460;-66
2022/08/18 01:41:35;;;;;;;58.55;39.45;;;;;;;;;;5021073;28;20190;-65
2022/08/18 01:44:02;;;;;;;52.70;39.90;;;;;;;;;;5031676;28;20198;-66
2022/08/18 01:46:30;;;;;;;50.58;37.90;;;;;;;;;;5024055;28;20191;-66
2022/08/18 01:49:00;;;;;;;54.47;39.70;;;;;;;;;;5029669;28;20703;-66
2022/08/18 01:51:26;;;;;;;57.13;39.25;;;;;;;;;;5019745;28;20811;-66
2022/08/18 01:53:52;;;;;;;54.75;38.60;;;;;;;;;;5028113;28;20592;-65
2022/08/18 01:56:17;;;;;;;51.20;37.40;;;;;;;;;;5031366;28;20187;-65
2022/08/18 01:58:44;;;;;;;50.90;37.78;;;;;;;;;;5030670;28;20647;-65
2022/08/18 02:01:11;;;;;;;52.53;38.20;;;;;;;;;;5029294;28;20213;-65
2022/08/18 02:03:44;;;;;;;51.85;37.63;;;;;;;;;;5025060;28;20185;-65
2022/08/18 02:06:12;;;;;;;48.72;37.53;;;;;;;;;;5018125;28;20638;-65
2022/08/18 02:08:38;;;;;;;52.78;38.85;;;;;;;;;;5039448;28;20220;-65
2022/08/18 02:11:05;;;;;;;55.80;41.25;;;;;;;;;;5031638;28;20189;-65
2022/08/18 02:13:31;;;;;;;57.50;40.92;;;;;;;;;;5011822;28;20244;-65
2022/08/18 02:15:57;;;;;;;59.08;42.05;;;;;;;;;;5027922;28;20205;-65
2022/08/18 02:18:28;;;;;;;59.38;42.03;;;;;;;;;;5022469;28;20182;-65
2022/08/18 02:20:56;;;;;;;59.78;41.28;;;;;;;;;;5030772;28;20217;-66
2022/08/18 02:23:22;;;;;;;64.80;43.45;;;;;;;;;;5020866;28;20178;-66
2022/08/18 02:25:47;;;;;;;61.92;41.67;;;;;;;;;;5029898;28;20226;-65
2022/08/18 02:28:13;;;;;;;66.57;42.97;;;;;;;;;;5020186;28;20182;-66
2022/08/18 02:30:38;;;;;;;65.25;42.53;;;;;;;;;;5030771;28;20267;-65
2022/08/18 02:33:08;;;;;;;64.72;42.78;;;;;;;;;;5033751;28;20224;-65
2022/08/18 02:35:34;;;;;;;62.72;43.30;;;;;;;;;;5030663;28;20193;-65
2022/08/18 02:38:01;;;;;;;62.08;42.00;;;;;;;;;;5028476;28;20270;-65
2022/08/18 02:40:27;;;;;;;62.90;43.15;;;;;;;;;;5030205;28;20617;-65
2022/08/18 02:42:53;;;;;;;61.78;42.05;;;;;;;;;;5025222;28;20190;-65
2022/08/18 02:45:19;;;;;;;59.65;40.78;;;;;;;;;;5029559;28;20530;-65
2022/08/18 02:47:51;;;;;;;56.72;39.60;;;;;;;;;;5019825;28;20189;-65
2022/08/18 02:50:16;;;;;;;55.85;39.00;;;;;;;;;;5029138;28;20231;-64
2022/08/18 02:52:41;;;;;;;56.97;39.33;;;;;;;;;;5029740;28;20182;-64
2022/08/18 02:55:08;;;;;;;56.72;38.83;;;;;;;;;;5030504;28;20192;-65
2022/08/18 02:57:33;;;;;;;56.50;37.55;;;;;;;;;;5026408;28;20664;-65
2022/08/18 03:00:00;;;;;;;53.80;38.10;;;;;;;;;;5030058;28;20193;-65
2022/08/18 03:02:25;;;;;;;50.65;37.00;;;;;;;;;;5028428;28;20173;-65
2022/08/18 03:04:51;;;;;;;53.03;37.63;;;;;;;;;;5026478;28;20255;-64
2022/08/18 03:07:17;;;;;;;54.47;37.63;;;;;;;;;;5030038;28;20244;-65
2022/08/18 03:09:42;;;;;;;50.22;35.85;;;;;;;;;;5040888;28;20272;-65
2022/08/18 03:12:09;;;;;;;51.58;35.97;;;;;;;;;;5028639;28;20631;-65
2022/08/18 03:14:36;;;;;;;49.63;35.08;;;;;;;;;;5016311;28;20272;-65
2022/08/18 03:17:04;;;;;;;50.38;35.80;;;;;;;;;;5029849;28;20634;-65
2022/08/18 03:19:30;;;;;;;53.50;36.33;;;;;;;;;;5029060;28;20185;-64
2022/08/18 03:21:58;;;;;;;47.97;33.42;;;;;;;;;;5026038;28;20200;-65
2022/08/18 03:24:24;;;;;;;49.67;34.22;;;;;;;;;;5023750;28;20691;-65
2022/08/18 03:26:51;;;;;;;52.13;36.00;;;;;;;;;;5019590;28;20178;-64
2022/08/18 03:29:17;;;;;;;49.88;34.42;;;;;;;;;;5027931;28;20190;-64
2022/08/18 03:31:44;;;;;;;50.38;34.70;;;;;;;;;;5034127;28;20666;-65
2022/08/18 03:34:10;;;;;;;49.38;34.53;;;;;;;;;;5025331;28;20213;-64
2022/08/18 03:36:36;;;;;;;46.85;33.97;;;;;;;;;;5028428;28;20209;-65
2022/08/18 03:39:07;;;;;;;44.88;31.85;;;;;;;;;;5025631;28;20677;-64
2022/08/18 03:41:34;;;;;;;44.83;31.73;;;;;;;;;;5028484;28;20193;-64
2022/08/18 03:44:01;;;;;;;49.40;34.20;;;;;;;;;;5014656;28;20654;-65
2022/08/18 03:46:27;;;;;;;50.80;33.17;;;;;;;;;;5016429;28;20194;-65
2022/08/18 03:48:55;;;;;;;47.50;33.15;;;;;;;;;;5014229;28;20178;-65
2022/08/18 03:51:25;;;;;;;50.10;33.85;;;;;;;;;;5028878;28;20186;-65
2022/08/18 03:53:53;;;;;;;49.90;35.03;;;;;;;;;;5014799;28;20744;-71
2022/08/18 03:56:24;;;;;;;55.38;36.70;;;;;;;;;;5029347;28;20185;-65
2022/08/18 03:58:57;;;;;;;54.50;36.75;;;;;;;;;;5028321;28;20208;-64
2022/08/18 04:01:26;;;;;;;57.13;37.88;;;;;;;;;;5023520;28;20185;-64
2022/08/18 04:03:55;;;;;;;55.60;36.83;;;;;;;;;;5027540;28;20273;-64
2022/08/18 04:06:24;;;;;;;59.25;37.85;;;;;;;;;;5029202;28;20174;-65
2022/08/18 04:08:51;;;;;;;54.78;36.88;;;;;;;;;;5039926;28;20189;-65
2022/08/18 04:11:17;;;;;;;58.50;36.40;;;;;;;;;;5029040;28;20171;-64
2022/08/18 04:13:42;;;;;;;55.55;37.22;;;;;;;;;;5025845;28;20217;-64
2022/08/18 04:16:08;;;;;;;54.65;36.72;;;;;;;;;;5028433;28;20268;-64
2022/08/18 04:18:34;;;;;;;57.22;36.88;;;;;;;;;;5026609;28;20186;-64
2022/08/18 04:21:06;;;;;;;58.60;37.30;;;;;;;;;;5027854;28;20205;-65
2022/08/18 04:23:33;;;;;;;62.08;37.40;;;;;;;;;;5027653;28;20192;-64
2022/08/18 04:26:00;;;;;;;64.57;38.50;;;;;;;;;;5027637;28;20213;-64
2022/08/18 04:28:27;;;;;;;64.50;38.20;;;;;;;;;;5025497;28;20277;-64
2022/08/18 04:30:53;;;;;;;64.53;39.03;;;;;;;;;;5031132;28;20178;-65
2022/08/18 04:33:19;;;;;;;70.32;40.17;;;;;;;;;;5029023;28;20550;-65
2022/08/18 04:35:45;;;;;;;70.03;41.35;;;;;;;;;;5017424;28;20185;-65
2022/08/18 04:38:11;;;;;;;74.85;42.15;;;;;;;;;;5018636;28;20731;-64
2022/08/18 04:40:37;;;;;;;71.18;39.67;;;;;;;;;;5015475;28;20186;-65
2022/08/18 04:43:02;;;;;;;59.45;36.72;;;;;;;;;;5020310;28;20190;-65
2022/08/18 04:45:28;;;;;;;60.53;37.80;;;;;;;;;;5026504;28;20286;-65
2022/08/18 04:47:54;;;;;;;53.85;35.42;;;;;;;;;;5021712;28;20278;-65
2022/08/18 04:50:20;;;;;;;57.80;36.10;;;;;;;;;;5024347;28;20254;-65
2022/08/18 04:55:29;;;;;;;64.78;38.15;;;;;;;;;;5026733;28;20269;-65
2022/08/18 04:57:58;;;;;;;55.30;34.85;;;;;;;;;;5017765;28;20452;-65
2022/08/18 05:00:23;;;;;;;54.30;33.38;;;;;;;;;;5027340;28;20181;-64
2022/08/18 05:02:48;;;;;;;52.42;32.90;;;;;;;;;;5028559;28;20186;-64
2022/08/18 05:05:14;;;;;;;50.88;32.45;;;;;;;;;;5028463;28;20240;-65
2022/08/18 05:07:45;;;;;;;50.13;32.28;;;;;;;;;;5025198;28;20245;-65
2022/08/18 05:10:11;;;;;;;49.00;33.05;;;;;;;;;;5020387;28;20597;-65
2022/08/18 05:12:40;;;;;;;47.80;31.17;;;;;;;;;;5027561;28;20218;-65
2022/08/18 05:15:06;;;;;;;46.72;31.35;;;;;;;;;;5028483;28;20595;-65
2022/08/18 05:17:31;;;;;;;48.38;31.88;;;;;;;;;;5026655;28;20209;-65
2022/08/18 05:20:02;;;;;;;47.25;31.92;;;;;;;;;;5024120;28;20222;-65
2022/08/18 05:22:28;;;;;;;53.80;33.15;;;;;;;;;;5026921;28;20606;-64
2022/08/18 05:24:53;;;;;;;53.95;31.17;;;;;;;;;;5013858;28;20720;-64
2022/08/18 05:27:20;;;;;;;52.03;32.03;;;;;;;;;;5022090;28;20440;-65
2022/08/18 05:29:45;;;;;;;55.28;31.85;;;;;;;;;;5026663;28;20588;-65
2022/08/18 05:32:10;;;;;;;53.40;32.08;;;;;;;;;;5035642;28;20289;-65
2022/08/18 05:34:36;;;;;;;52.75;31.35;;;;;;;;;;5026272;28;20210;-64
2022/08/18 05:37:26;;;;;;;51.25;30.80;;;;;;;;;;5029774;28;20210;-64
2022/08/18 05:40:02;;;;;;;49.72;30.25;;;;;;;;;;5031297;28;20186;-64
2022/08/18 05:42:33;;;;;;;49.28;28.83;;;;;;;;;;5031532;28;20650;-65
2022/08/18 05:45:00;;;;;;;48.17;29.80;;;;;;;;;;5030906;28;20210;-65
2022/08/18 05:47:28;;;;;;;46.63;28.65;;;;;;;;;;5031194;28;20600;-65
2022/08/18 05:49:56;;;;;;;40.38;27.20;;;;;;;;;;5030051;28;20568;-65
2022/08/18 05:52:30;;;;;;;47.28;28.17;;;;;;;;;;5029427;28;20677;-65
2022/08/18 05:57:58;;;;;;;44.63;26.42;;;;;;;;;;5027706;28;20229;-65
2022/08/18 06:00:25;;;;;;;44.42;26.95;;;;;;;;;;5026940;28;20182;-65
2022/08/18 06:02:58;;;;;;;42.33;25.77;;;;;;;;;;5028240;28;20582;-65
2022/08/18 06:05:31;;;;;;;34.13;23.38;;;;;;;;;;5025826;28;20206;-64
2022/08/18 06:08:04;;;;;;;42.72;25.10;;;;;;;;;;5032980;28;20181;-65
2022/08/18 06:10:30;;;;;;;36.00;24.77;;;;;;;;;;5025762;28;20190;-65
2022/08/18 06:12:59;;;;;;;32.63;23.40;;;;;;;;;;5030818;28;20190;-64
2022/08/18 06:15:33;;;;;;;31.95;21.75;;;;;;;;;;5030889;28;20649;-64
2022/08/18 06:18:26;;;;;;;35.35;23.52;;;;;;;;;;5016689;28;20182;-64
2022/08/18 06:21:25;;;;;;;34.40;22.90;;;;;;;;;;5030737;28;20273;-65
2022/08/18 06:24:03;;;;;;;38.22;24.60;;;;;;;;;;5020736;28;20238;-64
2022/08/18 06:26:52;;;;;;;36.47;24.98;;;;;;;;;;5015283;28;20474;-65
2022/08/18 06:29:35;;;;;;;39.17;24.85;;;;;;;;;;5029197;28;20182;-65
2022/08/18 06:32:26;;;;;;;38.63;23.73;;;;;;;;;;5034118;28;20729;-64
2022/08/18 06:35:07;;;;;;;35.90;22.63;;;;;;;;;;5025667;28;20201;-64
2022/08/18 06:38:37;;;;;;;42.30;23.05;;;;;;;;;;5030557;28;20188;-64
2022/08/18 06:40:24;;;;;;;29.05;21.90;;;;;;;;;;5028765;28;20281;-64
2022/08/18 06:42:49;;;;;;;31.40;21.30;;;;;;;;;;5029922;28;20332;-64
2022/08/18 06:45:17;;;;;;;31.92;20.83;;;;;;;;;;5029583;28;20209;-64
2022/08/18 06:48:11;;;;;;;28.55;20.48;;;;;;;;;;5029319;28;20624;-65
2022/08/18 06:51:03;;;;;;;28.08;19.58;;;;;;;;;;5028366;28;20198;-65
2022/08/18 06:53:56;;;;;;;33.25;20.27;;;;;;;;;;5028559;28;20181;-65
2022/08/18 06:56:38;;;;;;;32.63;21.02;;;;;;;;;;5030308;28;20653;-65
2022/08/18 06:59:24;;;;;;;29.50;20.55;;;;;;;;;;5024765;28;20186;-65
2022/08/18 07:02:09;;;;;;;30.75;20.00;;;;;;;;;;5030246;28;20269;-65
2022/08/18 07:05:13;;;;;;;31.92;21.30;;;;;;;;;;5025769;28;20673;-65
2022/08/18 07:07:40;;;;;;;30.52;20.05;;;;;;;;;;5026455;28;20290;-64
2022/08/18 07:10:28;;;;;;;29.77;20.67;;;;;;;;;;5027213;28;20631;-65
2022/08/18 07:13:07;;;;;;;30.88;20.33;;;;;;;;;;5026740;28;20210;-65
2022/08/18 07:15:32;;;;;;;29.45;19.23;;;;;;;;;;5023611;28;20678;-65
2022/08/18 07:18:06;;;;;;;23.50;18.67;;;;;;;;;;5015906;28;20266;-65
2022/08/18 07:20:44;;;;;;;27.48;18.23;;;;;;;;;;5030458;28;20194;-65
2022/08/18 07:23:23;;;;;;;29.08;18.42;;;;;;;;;;5018556;28;20227;-64
2022/08/18 07:25:53;;;;;;;24.73;17.88;;;;;;;;;;5013931;28;20553;-64
2022/08/18 07:28:30;;;;;;;25.35;17.88;;;;;;;;;;5022415;28;20263;-64
2022/08/18 07:31:26;;;;;;;24.35;18.40;;;;;;;;;;5032575;28;20700;-65
2022/08/18 07:34:00;;;;;;;23.90;17.27;;;;;;;;;;5018286;28;20709;-64
2022/08/18 07:36:29;;;;;;;24.67;18.88;;;;;;;;;;5022298;28;20204;-65
2022/08/18 07:39:09;;;;;;;22.35;16.60;;;;;;;;;;5015547;28;20465;-64
2022/08/18 07:41:43;;;;;;;21.80;16.30;;;;;;;;;;5028199;28;20276;-64
2022/08/18 07:44:32;;;;;;;21.25;16.58;;;;;;;;;;5026383;28;20206;-65
2022/08/18 07:47:09;;;;;;;20.17;16.38;;;;;;;;;;5029064;28;20715;-64
2022/08/18 07:49:35;;;;;;;17.15;14.48;;;;;;;;;;5029508;28;20316;-67
2022/08/18 07:52:20;;;;;;;19.17;15.93;;;;;;;;;;5028716;28;20186;-65
2022/08/18 07:55:03;;;;;;;18.38;13.43;;;;;;;;;;5029265;28;20178;-65
2022/08/18 07:57:39;;;;;;;18.73;12.43;;;;;;;;;;5029288;28;20216;-65
2022/08/18 08:00:28;;;;;;;16.40;12.88;;;;;;;;;;5028762;28;20616;-64
2022/08/18 08:03:05;;;;;;;16.42;11.40;;;;;;;;;;5017454;28;20185;-64
2022/08/18 08:05:38;;;;;;;19.15;12.63;;;;;;;;;;5028861;28;20202;-64
2022/08/18 08:08:22;;;;;;;15.68;12.13;;;;;;;;;;5036066;28;20627;-64
2022/08/18 08:11:03;;;;;;;14.23;12.02;;;;;;;;;;5027002;28;20186;-65
2022/08/18 08:13:52;;;;;;;17.75;12.68;;;;;;;;;;5019812;28;20206;-65
2022/08/18 08:16:35;;;;;;;14.15;10.60;;;;;;;;;;5012914;28;20186;-64
2022/08/18 08:19:16;;;;;;;16.17;11.60;;;;;;;;;;5023440;28;20209;-65
2022/08/18 08:22:00;;;;;;;16.20;12.60;;;;;;;;;;5029144;28;20247;-65
2022/08/18 08:24:39;;;;;;;13.48;11.68;;;;;;;;;;5009845;28;20857;-64
2022/08/18 08:27:17;;;;;;;13.32;9.90;;;;;;;;;;5020010;28;20190;-65
2022/08/18 08:30:06;;;;;;;14.57;9.40;;;;;;;;;;5023981;28;20182;-64
2022/08/18 08:32:50;;;;;;;14.20;9.02;;;;;;;;;;5033288;28;20355;-65
2022/08/18 08:35:20;;;;;;;9.68;8.27;;;;;;;;;;5019014;28;20185;-64
2022/08/18 08:37:53;;;;;;;12.20;8.52;;;;;;;;;;5029101;28;20588;-66
2022/08/18 08:40:26;;;;;;;9.30;7.60;;;;;;;;;;5027100;28;20240;-65
2022/08/18 08:43:01;;;;;;;10.52;8.20;;;;;;;;;;5028609;28;20185;-65
2022/08/18 08:45:32;;;;;;;11.27;8.73;;;;;;;;;;5016738;28;20237;-65
2022/08/18 08:48:11;;;;;;;13.93;8.43;;;;;;;;;;5028259;28;20188;-64
2022/08/18 08:50:47;;;;;;;15.15;9.15;;;;;;;;;;5027197;28;20740;-65
2022/08/18 08:53:23;;;;;;;12.82;8.70;;;;;;;;;;5028302;28;20182;-65
2022/08/18 08:55:57;;;;;;;12.93;8.25;;;;;;;;;;5016755;28;20185;-65
2022/08/18 08:58:29;;;;;;;10.95;6.97;;;;;;;;;;5028706;28;20194;-64
2022/08/18 09:00:56;;;;;;;8.38;3.90;;;;;;;;;;5015915;28;20592;-65
2022/08/18 09:03:46;;;;;;;7.75;4.68;;;;;;;;;;5026366;28;20265;-64
2022/08/18 09:06:50;;;;;;;7.88;5.55;;;;;;;;;;5015956;28;20293;-65
2022/08/18 09:09:36;;;;;;;8.20;4.85;;;;;;;;;;5039505;28;20282;-66
2022/08/18 09:12:07;;;;;;;6.05;4.28;;;;;;;;;;5025795;28;20189;-65
2022/08/18 09:14:41;;;;;;;8.15;5.47;;;;;;;;;;5031125;28;20182;-65
2022/08/18 09:17:28;;;;;;;7.00;4.78;;;;;;;;;;5025480;28;20177;-65
2022/08/18 09:20:24;;;;;;;7.72;4.78;;;;;;;;;;5012875;28;20187;-65
2022/08/18 09:22:54;;;;;;;6.68;3.85;;;;;;;;;;5029454;28;20196;-65
2022/08/18 09:25:45;;;;;;;6.63;3.78;;;;;;;;;;5031053;28;20226;-65
2022/08/18 09:28:14;;;;;;;7.20;3.50;;;;;;;;;;5028517;28;20182;-66
2022/08/18 09:30:47;;;;;;;7.45;3.38;;;;;;;;;;5031155;28;20269;-64
2022/08/18 09:33:26;;;;;;;6.38;3.80;;;;;;;;;;5034832;28;20216;-65
2022/08/18 09:36:06;;;;;;;4.80;3.58;;;;;;;;;;5025899;28;20231;-64
2022/08/18 09:41:32;;;;;;;4.63;3.03;;;;;;;;;;5031548;28;20244;-65
2022/08/18 09:44:10;;;;;;;7.07;3.70;;;;;;;;;;5009701;28;20681;-65
2022/08/18 09:46:50;;;;;;;5.53;3.95;;;;;;;;;;5025834;28;20692;-65
2022/08/18 09:49:21;;;;;;;4.72;3.53;;;;;;;;;;5029976;28;20182;-64
2022/08/18 09:51:49;;;;;;;6.18;3.67;;;;;;;;;;5028862;28;20656;-65
2022/08/18 09:54:17;;;;;;;7.22;4.05;;;;;;;;;;5030785;28;20197;-66
2022/08/18 09:56:57;;;;;;;6.32;3.90;;;;;;;;;;5031310;28;20194;-65
2022/08/18 09:59:31;;;;;;;4.90;3.67;;;;;;;;;;5018819;28;20182;-65
2022/08/18 10:01:56;;;;;;;6.70;3.63;;;;;;;;;;5031056;28;20196;-69
2022/08/18 10:04:47;;;;;;;4.95;3.17;;;;;;;;;;5031235;28;20635;-65
2022/08/18 10:07:33;;;;;;;3.95;3.08;;;;;;;;;;5031252;28;20182;-65
2022/08/18 10:10:13;;;;;;;5.50;2.70;;;;;;;;;;5035205;28;20179;-65
2022/08/18 10:13:00;;;;;;;5.68;2.40;;;;;;;;;;5029425;28;20637;-65
2022/08/18 10:15:38;;;;;;;4.22;2.47;;;;;;;;;;5021978;28;20329;-65
2022/08/18 10:18:23;;;;;;;2.85;2.47;;;;;;;;;;5018104;28;20548;-65
2022/08/18 10:20:58;;;;;;;5.50;2.20;;;;;;;;;;5029567;28;20581;-65
2022/08/18 10:24:01;;;;;;;4.00;2.15;;;;;;;;;;5030259;28;20189;-65
2022/08/18 10:26:29;;;;;;;5.38;2.10;;;;;;;;;;5029401;28;20186;-65
2022/08/18 10:29:06;;;;;;;2.33;1.88;;;;;;;;;;5030688;28;20190;-63
2022/08/18 10:31:54;;;;;;;3.88;1.90;;;;;;;;;;5035249;28;20212;-63
2022/08/18 10:34:44;;;;;;;4.43;2.67;;;;;;;;;;5018989;28;20201;-65
2022/08/18 10:37:32;;;;;;;6.68;2.58;;;;;;;;;;5011720;28;20536;-65
2022/08/18 10:40:21;;;;;;;4.35;2.90;;;;;;;;;;5026066;28;20174;-66
2022/08/18 10:42:57;;;;;;;4.00;3.25;;;;;;;;;;5029740;28;20178;-65
2022/08/18 10:45:29;;;;;;;5.00;2.97;;;;;;;;;;5027180;28;20263;-66
2022/08/18 10:48:03;;;;;;;4.07;2.42;;;;;;;;;;5029358;28;20258;-65
2022/08/18 10:50:38;;;;;;;4.60;2.50;;;;;;;;;;5025556;28;20217;-67
2022/08/18 10:53:51;;;;;;;6.18;2.90;;;;;;;;;;5020606;28;20184;-66
2022/08/18 10:56:22;;;;;;;6.20;3.05;;;;;;;;;;5011624;28;20256;-66
2022/08/18 10:58:56;;;;;;;4.80;3.28;;;;;;;;;;5026247;28;20190;-66
2022/08/18 11:01:34;;;;;;;6.35;2.42;;;;;;;;;;5024854;28;20184;-66
2022/08/18 11:04:20;;;;;;;4.75;2.28;;;;;;;;;;5029147;28;20650;-66
2022/08/18 11:06:55;;;;;;;3.95;2.88;;;;;;;;;;5030363;28;20684;-66
2022/08/18 11:09:28;;;;;;;4.78;2.50;;;;;;;;;;5042234;28;20735;-66
2022/08/18 11:11:58;;;;;;;6.13;2.60;;;;;;;;;;5026813;28;20198;-66
2022/08/18 11:14:38;;;;;;;2.40;2.20;;;;;;;;;;5028015;28;20167;-65
2022/08/18 11:17:18;;;;;;;3.75;2.33;;;;;;;;;;5029332;28;20196;-66
2022/08/18 11:19:45;;;;;;;2.50;1.80;;;;;;;;;;5028766;28;20178;-66
2022/08/18 11:22:31;;;;;;;3.15;1.75;;;;;;;;;;5022980;28;20178;-65
2022/08/18 11:24:57;;;;;;;2.47;1.70;;;;;;;;;;5028204;28;20229;-66
2022/08/18 11:27:25;;;;;;;2.85;1.80;;;;;;;;;;5027185;28;20182;-66
2022/08/18 11:29:52;;;;;;;3.80;2.05;;;;;;;;;;5026275;28;21187;-65
2022/08/18 11:32:33;;;;;;;2.28;1.67;;;;;;;;;;5028707;28;20201;-65
2022/08/18 11:34:58;;;;;;;3.90;1.70;;;;;;;;;;5025442;28;20616;-67
2022/08/18 11:37:46;;;;;;;3.08;2.05;;;;;;;;;;5029849;28;20182;-66
2022/08/18 11:40:33;;;;;;;3.78;2.33;;;;;;;;;;5028467;28;20188;-65
2022/08/18 11:43:04;;;;;;;4.80;2.60;;;;;;;;;;5029380;28;20577;-65
2022/08/18 11:45:46;;;;;;;5.88;2.45;;;;;;;;;;5029605;28;20202;-66
2022/08/18 11:48:26;;;;;;;4.88;3.00;;;;;;;;;;5029593;28;20190;-65
2022/08/18 11:50:52;;;;;;;4.13;2.80;;;;;;;;;;5017835;28;20204;-65
2022/08/18 11:53:48;;;;;;;3.35;2.40;;;;;;;;;;5028590;28;20201;-65
2022/08/18 11:56:19;;;;;;;4.55;2.67;;;;;;;;;;5017985;28;20186;-65
2022/08/18 11:59:01;;;;;;;3.53;2.65;;;;;;;;;;5028438;28;20178;-65
2022/08/18 12:01:50;;;;;;;7.65;2.92;;;;;;;;;;5027981;28;20269;-65
2022/08/18 12:04:19;;;;;;;2.60;2.40;;;;;;;;;;5028312;28;20179;-66
2022/08/18 12:07:04;;;;;;;3.50;2.13;;;;;;;;;;5026661;28;20277;-65
2022/08/18 12:09:36;;;;;;;3.47;2.40;;;;;;;;;;5027855;28;20177;-65
2022/08/18 12:12:23;;;;;;;3.30;2.50;;;;;;;;;;5028560;28;20216;-66
2022/08/18 12:15:02;;;;;;;3.95;2.20;;;;;;;;;;5017282;28;20857;-66
2022/08/18 12:17:30;;;;;;;2.50;1.90;;;;;;;;;;5024966;28;20201;-66
2022/08/18 12:19:57;;;;;;;3.72;1.92;;;;;;;;;;5029753;28;20687;-66
2022/08/18 12:22:25;;;;;;;2.83;1.95;;;;;;;;;;5028543;28;20553;-65
2022/08/18 12:24:51;;;;;;;4.05;2.42;;;;;;;;;;5027661;28;20531;-65
2022/08/18 12:27:19;;;;;;;3.78;2.00;;;;;;;;;;5024256;28;20281;-65
2022/08/18 12:29:45;;;;;;;3.22;1.90;;;;;;;;;;5027894;28;20182;-68
2022/08/18 12:32:11;;;;;;;2.58;1.90;;;;;;;;;;5034522;28;20774;-66
2022/08/18 12:34:37;;;;;;;3.40;2.05;;;;;;;;;;5028732;28;20200;-66
2022/08/18 12:37:02;;;;;;;4.47;1.70;;;;;;;;;;5027281;28;20313;-66
2022/08/18 12:39:33;;;;;;;4.03;2.20;;;;;;;;;;5030845;28;20256;-67
2022/08/18 12:41:58;;;;;;;2.83;1.60;;;;;;;;;;5021257;28;20182;-67
2022/08/18 12:44:24;;;;;;;2.78;1.40;;;;;;;;;;5033091;28;20212;-67
2022/08/18 12:46:50;;;;;;;2.33;1.20;;;;;;;;;;5021396;28;20191;-67
2022/08/18 12:49:22;;;;;;;2.80;1.40;;;;;;;;;;5031406;28;20633;-67
2022/08/18 12:51:48;;;;;;;4.90;1.92;;;;;;;;;;5020744;28;20686;-65
2022/08/18 12:54:13;;;;;;;3.80;1.50;;;;;;;;;;5033028;28;20174;-67
2022/08/18 12:56:41;;;;;;;3.90;1.70;;;;;;;;;;5023306;28;20553;-68
2022/08/18 12:59:08;;;;;;;3.10;1.80;;;;;;;;;;5030455;28;20281;-69
2022/08/18 13:01:35;;;;;;;4.78;1.67;;;;;;;;;;5023618;28;20186;-68
2022/08/18 13:04:01;;;;;;;2.80;1.63;;;;;;;;;;5028934;28;20567;-70
2022/08/18 13:06:26;;;;;;;4.88;2.00;;;;;;;;;;5021632;28;20206;-68
2022/08/18 13:08:54;;;;;;;3.75;1.50;;;;;;;;;;5045272;28;20223;-70
2022/08/18 13:11:21;;;;;;;2.55;1.30;;;;;;;;;;5029027;28;20205;-67
2022/08/18 13:13:46;;;;;;;2.63;1.55;;;;;;;;;;5032784;28;20247;-67
2022/08/18 13:16:13;;;;;;;4.07;1.40;;;;;;;;;;5030918;28;20182;-64
2022/08/18 13:18:42;;;;;;;3.53;1.88;;;;;;;;;;5032405;28;20216;-67
2022/08/18 13:21:10;;;;;;;3.10;1.80;;;;;;;;;;5031002;28;20261;-68
2022/08/18 13:23:36;;;;;;;5.85;1.88;;;;;;;;;;5030406;28;20201;-68
2022/08/18 13:26:03;;;;;;;2.75;1.95;;;;;;;;;;5026875;28;20194;-68
2022/08/18 13:28:30;;;;;;;3.70;2.00;;;;;;;;;;5032472;28;20269;-66
2022/08/18 13:30:56;;;;;;;5.22;1.77;;;;;;;;;;5028778;28;20190;-66
2022/08/18 13:33:21;;;;;;;3.35;1.85;;;;;;;;;;5028237;28;20210;-66
2022/08/18 13:35:48;;;;;;;3.47;1.70;;;;;;;;;;5031046;28;20174;-66
2022/08/18 13:38:18;;;;;;;2.60;1.90;;;;;;;;;;5023548;28;20544;-66
2022/08/18 13:40:47;;;;;;;2.65;1.60;;;;;;;;;;5030647;28;20182;-66
2022/08/18 13:43:15;;;;;;;4.35;1.92;;;;;;;;;;5026065;28;20182;-67
2022/08/18 13:45:43;;;;;;;1.58;1.40;;;;;;;;;;5024953;28;20210;-69
2022/08/18 13:48:09;;;;;;;3.67;2.00;;;;;;;;;;5031735;28;20186;-66
2022/08/18 13:50:39;;;;;;;2.15;1.58;;;;;;;;;;5031218;28;20603;-66
2022/08/18 13:53:09;;;;;;;2.50;2.00;;;;;;;;;;5030585;28;20175;-67
2022/08/18 13:55:34;;;;;;;2.85;1.70;;;;;;;;;;5031812;28;20193;-67
2022/08/18 13:58:00;;;;;;;3.97;2.08;;;;;;;;;;5023557;28;20178;-67
2022/08/18 14:00:28;;;;;;;1.77;1.58;;;;;;;;;;5030212;28;20673;-66
2022/08/18 14:02:55;;;;;;;10.80;1.80;;;;;;;;;;5029186;28;20189;-68
2022/08/18 14:05:22;;;;;;;4.28;1.67;;;;;;;;;;5031015;28;20237;-67
2022/08/18 14:07:47;;;;;;;4.78;1.92;;;;;;;;;;5036856;28;20627;-68
2022/08/18 14:10:14;;;;;;;2.10;1.90;;;;;;;;;;5040200;28;20222;-67
2022/08/18 14:12:40;;;;;;;2.60;1.65;;;;;;;;;;5020505;28;20642;-67
2022/08/18 14:15:10;;;;;;;2.85;1.65;;;;;;;;;;5030812;28;20705;-67
2022/08/18 14:17:36;;;;;;;2.55;1.42;;;;;;;;;;5018981;28;20189;-68
2022/08/18 14:28:21;;;;;;;3.22;1.60;;;;;;;;;;5029397;28;20648;-67
2022/08/18 14:30:46;;;;;;;3.25;1.80;;;;;;;;;;5033252;28;20190;-67
2022/08/18 14:33:15;;;;;;;3.15;1.80;;;;;;;;;;5023123;28;20203;-66
2022/08/18 14:35:41;;;;;;;3.47;1.52;;;;;;;;;;5030931;28;20379;-66
2022/08/18 14:38:07;;;;;;;2.28;2.00;;;;;;;;;;5028058;28;20201;-67
2022/08/18 14:40:33;;;;;;;4.15;1.60;;;;;;;;;;5015641;28;20205;-68
2022/08/18 14:43:00;;;;;;;5.50;2.55;;;;;;;;;;5029164;28;20275;-67
2022/08/18 14:45:27;;;;;;;3.60;1.75;;;;;;;;;;5030673;28;20281;-66
2022/08/18 14:47:53;;;;;;;1.92;1.80;;;;;;;;;;5026290;28;20689;-66
2022/08/18 14:50:20;;;;;;;2.85;2.08;;;;;;;;;;5030089;28;20185;-67
2022/08/18 14:52:47;;;;;;;4.88;2.10;;;;;;;;;;5020426;28;20537;-65
2022/08/18 14:55:12;;;;;;;4.28;2.30;;;;;;;;;;5024699;28;20255;-67
2022/08/18 14:57:38;;;;;;;3.03;2.25;;;;;;;;;;5027616;28;20206;-66
2022/08/18 15:00:10;;;;;;;3.55;1.85;;;;;;;;;;5030564;28;20192;-66
2022/08/18 15:02:36;;;;;;;3.75;1.90;;;;;;;;;;5029599;28;20188;-66
2022/08/18 15:05:01;;;;;;;2.28;2.00;;;;;;;;;;5029980;28;20202;-66
2022/08/18 15:07:26;;;;;;;2.88;1.88;;;;;;;;;;5026419;28;20525;-66
2022/08/18 15:09:52;;;;;;;3.05;1.80;;;;;;;;;;5041351;28;20660;-65
2022/08/18 15:12:19;;;;;;;2.85;1.58;;;;;;;;;;5022715;28;20174;-65
2022/08/18 15:14:44;;;;;;;3.05;1.35;;;;;;;;;;5030253;28;20240;-66
2022/08/18 15:17:11;;;;;;;1.85;1.30;;;;;;;;;;5023055;28;20184;-66
2022/08/18 15:19:36;;;;;;;2.00;1.60;;;;;;;;;;5017979;28;20525;-68